sensor_id;sensor_type;location;lat;lon;timestamp;pressure;altitude;pressure_sealevel;temperature;humidity
76732;BME280;65656;51.130;13.658;2023-05-10T00:01:56;98870.06;;;11.16;58.84
76732;BME280;65656;51.130;13.658;2023-05-10T00:05:58;98866.47;;;11.11;58.30
76732;BME280;65656;51.130;13.658;2023-05-10T00:10:01;98862.97;;;11.26;57.80
76732;BME280;65656;51.130;13.658;2023-05-10T00:14:02;98858.63;;;11.30;57.79
76732;BME280;65656;51.130;13.658;2023-05-10T00:18:04;98862.16;;;11.25;57.48
76732;BME280;65656;51.130;13.658;2023-05-10T00:22:06;98844.22;;;11.02;58.92
76732;BME280;65656;51.130;13.658;2023-05-10T00:26:08;98846.38;;;10.95;58.92
76732;BME280;65656;51.130;13.658;2023-05-10T00:30:10;98849.72;;;10.97;59.17
76732;BME280;65656;51.130;13.658;2023-05-10T00:34:12;98838.16;;;10.90;59.23
76732;BME280;65656;51.130;13.658;2023-05-10T00:38:13;98838.66;;;10.87;59.38
76732;BME280;65656;51.130;13.658;2023-05-10T00:42:16;98830.81;;;11.06;58.71
76732;BME280;65656;51.130;13.658;2023-05-10T00:46:18;98827.00;;;11.07;58.53
76732;BME280;65656;51.130;13.658;2023-05-10T00:50:19;98829.97;;;11.00;59.12
76732;BME280;65656;51.130;13.658;2023-05-10T00:54:21;98830.47;;;10.92;59.26
76732;BME280;65656;51.130;13.658;2023-05-10T00:58:24;98833.66;;;10.74;59.34
76732;BME280;65656;51.130;13.658;2023-05-10T01:02:25;98829.78;;;10.65;60.35
76732;BME280;65656;51.130;13.658;2023-05-10T01:06:27;98828.94;;;10.64;59.75
76732;BME280;65656;51.130;13.658;2023-05-10T01:10:29;98829.72;;;10.54;59.73
76732;BME280;65656;51.130;13.658;2023-05-10T01:14:32;98821.47;;;10.49;60.23
76732;BME280;65656;51.130;13.658;2023-05-10T01:18:37;98824.69;;;10.41;60.82
76732;BME280;65656;51.130;13.658;2023-05-10T01:22:52;98821.84;;;10.26;61.73
76732;BME280;65656;51.130;13.658;2023-05-10T01:27:23;98816.28;;;10.16;61.91
76732;BME280;65656;51.130;13.658;2023-05-10T01:31:40;98818.97;;;10.11;61.14
76732;BME280;65656;51.130;13.658;2023-05-10T01:35:47;98812.97;;;10.14;61.59
76732;BME280;65656;51.130;13.658;2023-05-10T01:39:57;98809.09;;;10.04;61.86
76732;BME280;65656;51.130;13.658;2023-05-10T01:44:06;98812.59;;;10.00;61.12
76732;BME280;65656;51.130;13.658;2023-05-10T01:48:11;98806.22;;;9.89;61.28
76732;BME280;65656;51.130;13.658;2023-05-10T01:52:19;98811.69;;;9.89;61.86
76732;BME280;65656;51.130;13.658;2023-05-10T01:56:25;98806.59;;;10.03;61.42
76732;BME280;65656;51.130;13.658;2023-05-10T02:00:28;98803.28;;;10.01;60.84
76732;BME280;65656;51.130;13.658;2023-05-10T02:04:31;98804.09;;;10.01;61.83
76732;BME280;65656;51.130;13.658;2023-05-10T02:08:35;98798.03;;;9.94;61.36
76732;BME280;65656;51.130;13.658;2023-05-10T02:12:41;98793.59;;;9.88;62.71
76732;BME280;65656;51.130;13.658;2023-05-10T02:16:44;98794.34;;;9.78;61.75
76732;BME280;65656;51.130;13.658;2023-05-10T02:20:46;98796.81;;;9.80;62.46
76732;BME280;65656;51.130;13.658;2023-05-10T02:24:50;98793.44;;;9.68;62.77
76732;BME280;65656;51.130;13.658;2023-05-10T02:28:52;98793.34;;;9.58;62.88
76732;BME280;65656;51.130;13.658;2023-05-10T02:32:55;98793.81;;;9.49;63.26
76732;BME280;65656;51.130;13.658;2023-05-10T02:36:58;98797.94;;;9.52;63.83
76732;BME280;65656;51.130;13.658;2023-05-10T02:41:04;98789.72;;;9.52;64.03
76732;BME280;65656;51.130;13.658;2023-05-10T02:45:10;98777.34;;;9.44;63.94
76732;BME280;65656;51.130;13.658;2023-05-10T02:49:13;98779.00;;;9.45;64.39
76732;BME280;65656;51.130;13.658;2023-05-10T02:53:15;98778.53;;;9.54;63.77
76732;BME280;65656;51.130;13.658;2023-05-10T02:57:25;98773.53;;;9.45;64.04
76732;BME280;65656;51.130;13.658;2023-05-10T03:01:27;98773.81;;;9.49;64.86
76732;BME280;65656;51.130;13.658;2023-05-10T03:05:29;98782.25;;;9.42;64.92
76732;BME280;65656;51.130;13.658;2023-05-10T03:09:31;98772.50;;;9.52;64.09
76732;BME280;65656;51.130;13.658;2023-05-10T03:13:38;98783.94;;;9.48;64.66
76732;BME280;65656;51.130;13.658;2023-05-10T03:17:45;98781.25;;;9.54;64.95
76732;BME280;65656;51.130;13.658;2023-05-10T03:21:50;98786.47;;;9.55;65.33
76732;BME280;65656;51.130;13.658;2023-05-10T03:25:54;98781.78;;;9.51;65.03
76732;BME280;65656;51.130;13.658;2023-05-10T03:29:57;98786.44;;;9.50;65.34
76732;BME280;65656;51.130;13.658;2023-05-10T03:33:59;98778.44;;;9.43;65.69
76732;BME280;65656;51.130;13.658;2023-05-10T03:38:00;98770.31;;;9.54;65.81
76732;BME280;65656;51.130;13.658;2023-05-10T03:42:02;98769.78;;;9.57;65.40
76732;BME280;65656;51.130;13.658;2023-05-10T03:46:05;98773.06;;;9.54;65.37
76732;BME280;65656;51.130;13.658;2023-05-10T03:50:07;98770.03;;;9.50;65.84
76732;BME280;65656;51.130;13.658;2023-05-10T03:54:09;98788.16;;;9.61;65.84
76732;BME280;65656;51.130;13.658;2023-05-10T03:58:11;98786.81;;;9.64;65.33
76732;BME280;65656;51.130;13.658;2023-05-10T04:02:14;98788.47;;;9.65;66.05
76732;BME280;65656;51.130;13.658;2023-05-10T04:06:15;98789.91;;;9.72;64.99
76732;BME280;65656;51.130;13.658;2023-05-10T04:10:17;98790.75;;;9.73;64.55
76732;BME280;65656;51.130;13.658;2023-05-10T04:14:19;98786.97;;;9.79;64.46
76732;BME280;65656;51.130;13.658;2023-05-10T04:18:21;98782.06;;;9.81;65.90
76732;BME280;65656;51.130;13.658;2023-05-10T04:22:23;98780.41;;;9.80;66.00
76732;BME280;65656;51.130;13.658;2023-05-10T04:26:24;98783.25;;;9.90;64.92
76732;BME280;65656;51.130;13.658;2023-05-10T04:30:26;98781.09;;;9.97;64.63
76732;BME280;65656;51.130;13.658;2023-05-10T04:34:29;98776.72;;;9.96;65.03
76732;BME280;65656;51.130;13.658;2023-05-10T04:38:30;98773.44;;;9.99;64.90
76732;BME280;65656;51.130;13.658;2023-05-10T04:42:32;98773.00;;;10.13;64.09
76732;BME280;65656;51.130;13.658;2023-05-10T04:46:34;98765.41;;;10.20;64.13
76732;BME280;65656;51.130;13.658;2023-05-10T04:50:37;98768.19;;;10.25;64.97
76732;BME280;65656;51.130;13.658;2023-05-10T04:54:38;98751.25;;;10.33;63.78
76732;BME280;65656;51.130;13.658;2023-05-10T04:58:40;98756.81;;;10.43;63.44
76732;BME280;65656;51.130;13.658;2023-05-10T05:02:42;98762.34;;;10.53;63.28
76732;BME280;65656;51.130;13.658;2023-05-10T05:06:45;98754.66;;;10.55;63.28
76732;BME280;65656;51.130;13.658;2023-05-10T05:10:47;98760.19;;;10.66;62.84
76732;BME280;65656;51.130;13.658;2023-05-10T05:14:49;98753.66;;;10.72;62.90
76732;BME280;65656;51.130;13.658;2023-05-10T05:18:50;98772.31;;;10.80;62.80
76732;BME280;65656;51.130;13.658;2023-05-10T05:22:53;98775.63;;;10.87;62.40
76732;BME280;65656;51.130;13.658;2023-05-10T05:26:55;98777.59;;;10.97;62.22
76732;BME280;65656;51.130;13.658;2023-05-10T05:30:56;98764.47;;;11.09;62.76
76732;BME280;65656;51.130;13.658;2023-05-10T05:34:58;98766.16;;;11.20;62.35
76732;BME280;65656;51.130;13.658;2023-05-10T05:39:01;98765.91;;;11.22;62.96
76732;BME280;65656;51.130;13.658;2023-05-10T05:43:02;98767.00;;;11.31;62.19
76732;BME280;65656;51.130;13.658;2023-05-10T05:47:04;98772.53;;;11.51;62.23
76732;BME280;65656;51.130;13.658;2023-05-10T05:51:06;98770.91;;;11.60;60.90
76732;BME280;65656;51.130;13.658;2023-05-10T05:55:09;98778.59;;;11.68;61.07
76732;BME280;65656;51.130;13.658;2023-05-10T05:59:11;98789.03;;;11.77;60.90
76732;BME280;65656;51.130;13.658;2023-05-10T06:03:12;98789.88;;;11.97;60.84
76732;BME280;65656;51.130;13.658;2023-05-10T06:07:14;98788.50;;;12.05;60.62
76732;BME280;65656;51.130;13.658;2023-05-10T06:11:17;98779.19;;;12.11;59.89
76732;BME280;65656;51.130;13.658;2023-05-10T06:15:18;98791.53;;;12.24;60.61
76732;BME280;65656;51.130;13.658;2023-05-10T06:19:20;98786.81;;;12.45;58.61
76732;BME280;65656;51.130;13.658;2023-05-10T06:23:21;98797.81;;;12.55;59.10
76732;BME280;65656;51.130;13.658;2023-05-10T06:27:24;98796.13;;;12.64;59.10
76732;BME280;65656;51.130;13.658;2023-05-10T06:31:26;98799.66;;;12.80;58.63
76732;BME280;65656;51.130;13.658;2023-05-10T06:35:27;98796.06;;;12.85;59.90
76732;BME280;65656;51.130;13.658;2023-05-10T06:39:29;98795.75;;;13.01;58.47
76732;BME280;65656;51.130;13.658;2023-05-10T06:43:32;98798.19;;;13.03;57.36
76732;BME280;65656;51.130;13.658;2023-05-10T06:47:33;98800.34;;;13.21;57.79
76732;BME280;65656;51.130;13.658;2023-05-10T06:51:39;98800.31;;;13.26;57.50
76732;BME280;65656;51.130;13.658;2023-05-10T06:55:40;98806.34;;;13.38;57.52
76732;BME280;65656;51.130;13.658;2023-05-10T06:59:44;98808.72;;;13.50;58.54
76732;BME280;65656;51.130;13.658;2023-05-10T07:03:45;98820.50;;;13.61;57.34
76732;BME280;65656;51.130;13.658;2023-05-10T07:07:47;98802.00;;;13.66;57.24
76732;BME280;65656;51.130;13.658;2023-05-10T07:11:48;98801.63;;;13.83;56.54
76732;BME280;65656;51.130;13.658;2023-05-10T07:15:51;98800.97;;;13.97;56.93
76732;BME280;65656;51.130;13.658;2023-05-10T07:19:53;98807.16;;;14.17;56.09
76732;BME280;65656;51.130;13.658;2023-05-10T07:23:54;98800.06;;;14.06;54.55
76732;BME280;65656;51.130;13.658;2023-05-10T07:27:56;98796.75;;;14.38;54.67
76732;BME280;65656;51.130;13.658;2023-05-10T07:31:58;98802.78;;;14.45;56.46
76732;BME280;65656;51.130;13.658;2023-05-10T07:36:00;98803.63;;;14.70;56.08
76732;BME280;65656;51.130;13.658;2023-05-10T07:40:02;98804.09;;;14.77;54.27
76732;BME280;65656;51.130;13.658;2023-05-10T07:44:04;98799.66;;;14.81;54.08
76732;BME280;65656;51.130;13.658;2023-05-10T07:48:07;98802.25;;;14.96;56.02
76732;BME280;65656;51.130;13.658;2023-05-10T07:52:08;98791.06;;;15.07;53.74
76732;BME280;65656;51.130;13.658;2023-05-10T07:56:20;98807.38;;;15.27;53.50
76732;BME280;65656;51.130;13.658;2023-05-10T08:00:22;98803.50;;;15.28;52.64
76732;BME280;65656;51.130;13.658;2023-05-10T08:04:25;98793.69;;;15.59;55.08
76732;BME280;65656;51.130;13.658;2023-05-10T08:08:27;98802.19;;;15.44;53.19
76732;BME280;65656;51.130;13.658;2023-05-10T08:12:28;98805.09;;;15.53;52.18
76732;BME280;65656;51.130;13.658;2023-05-10T08:16:30;98800.72;;;15.71;53.27
76732;BME280;65656;51.130;13.658;2023-05-10T08:20:33;98804.47;;;15.80;51.95
76732;BME280;65656;51.130;13.658;2023-05-10T08:24:34;98804.31;;;15.90;52.08
76732;BME280;65656;51.130;13.658;2023-05-10T08:28:36;98812.00;;;16.26;54.71
76732;BME280;65656;51.130;13.658;2023-05-10T08:32:37;98809.25;;;16.26;51.54
76732;BME280;65656;51.130;13.658;2023-05-10T08:36:40;98821.72;;;16.42;52.24
76732;BME280;65656;51.130;13.658;2023-05-10T08:40:43;98823.94;;;16.40;51.99
76732;BME280;65656;51.130;13.658;2023-05-10T08:44:48;98822.53;;;16.56;54.04
76732;BME280;65656;51.130;13.658;2023-05-10T08:48:51;98825.66;;;16.68;52.49
76732;BME280;65656;51.130;13.658;2023-05-10T08:52:55;98830.94;;;16.65;51.50
76732;BME280;65656;51.130;13.658;2023-05-10T08:56:58;98835.53;;;16.75;50.94
76732;BME280;65656;51.130;13.658;2023-05-10T09:01:00;98843.53;;;17.04;51.07
76732;BME280;65656;51.130;13.658;2023-05-10T09:05:03;98842.28;;;16.96;51.67
76732;BME280;65656;51.130;13.658;2023-05-10T09:09:06;98851.44;;;17.10;50.02
76732;BME280;65656;51.130;13.658;2023-05-10T09:13:09;98850.72;;;17.32;50.98
76732;BME280;65656;51.130;13.658;2023-05-10T09:17:11;98851.53;;;17.33;50.51
76732;BME280;65656;51.130;13.658;2023-05-10T09:21:13;98857.81;;;17.38;50.13
76732;BME280;65656;51.130;13.658;2023-05-10T09:25:16;98846.19;;;17.50;52.94
76732;BME280;65656;51.130;13.658;2023-05-10T09:29:18;98847.41;;;17.58;52.85
76732;BME280;65656;51.130;13.658;2023-05-10T09:33:20;98856.44;;;17.91;48.50
76732;BME280;65656;51.130;13.658;2023-05-10T09:37:29;98857.81;;;18.02;49.69
76732;BME280;65656;51.130;13.658;2023-05-10T09:41:33;98850.97;;;17.99;48.33
76732;BME280;65656;51.130;13.658;2023-05-10T09:45:35;98856.44;;;17.91;51.91
76732;BME280;65656;51.130;13.658;2023-05-10T09:49:41;98859.88;;;18.32;48.56
76732;BME280;65656;51.130;13.658;2023-05-10T09:53:42;98853.28;;;18.28;49.43
76732;BME280;65656;51.130;13.658;2023-05-10T09:57:46;98849.28;;;18.34;49.52
76732;BME280;65656;51.130;13.658;2023-05-10T10:01:49;98849.78;;;18.14;50.02
76732;BME280;65656;51.130;13.658;2023-05-10T10:05:51;98851.41;;;18.60;50.53
76732;BME280;65656;51.130;13.658;2023-05-10T10:09:53;98836.50;;;18.70;48.61
76732;BME280;65656;51.130;13.658;2023-05-10T10:13:55;98846.56;;;19.36;46.76
76732;BME280;65656;51.130;13.658;2023-05-10T10:17:57;98850.47;;;19.35;45.38
76732;BME280;65656;51.130;13.658;2023-05-10T10:22:00;98839.97;;;19.63;44.87
76732;BME280;65656;51.130;13.658;2023-05-10T10:26:01;98842.28;;;19.70;44.51
76732;BME280;65656;51.130;13.658;2023-05-10T10:30:13;98836.22;;;19.68;45.96
76732;BME280;65656;51.130;13.658;2023-05-10T10:34:25;98839.78;;;19.60;45.97
76732;BME280;65656;51.130;13.658;2023-05-10T10:38:36;98838.44;;;19.48;45.75
76732;BME280;65656;51.130;13.658;2023-05-10T10:42:44;98840.16;;;19.84;46.29
76732;BME280;65656;51.130;13.658;2023-05-10T10:47:03;98841.97;;;20.06;47.47
76732;BME280;65656;51.130;13.658;2023-05-10T10:51:05;98849.16;;;19.81;47.46
76732;BME280;65656;51.130;13.658;2023-05-10T10:55:09;98845.72;;;20.36;45.47
76732;BME280;65656;51.130;13.658;2023-05-10T10:59:10;98848.34;;;20.41;46.06
76732;BME280;65656;51.130;13.658;2023-05-10T11:03:13;98845.41;;;20.46;44.07
76732;BME280;65656;51.130;13.658;2023-05-10T11:07:19;98847.72;;;20.44;44.73
76732;BME280;65656;51.130;13.658;2023-05-10T11:11:20;98847.66;;;20.79;43.52
76732;BME280;65656;51.130;13.658;2023-05-10T11:15:28;98851.88;;;20.85;44.06
76732;BME280;65656;51.130;13.658;2023-05-10T11:19:31;98844.69;;;20.84;42.59
76732;BME280;65656;51.130;13.658;2023-05-10T11:23:48;98844.75;;;20.67;44.54
76732;BME280;65656;51.130;13.658;2023-05-10T11:27:49;98843.69;;;20.97;44.30
76732;BME280;65656;51.130;13.658;2023-05-10T11:31:51;98853.41;;;20.74;45.19
76732;BME280;65656;51.130;13.658;2023-05-10T11:35:54;98862.31;;;21.05;42.82
76732;BME280;65656;51.130;13.658;2023-05-10T11:39:55;98845.22;;;21.15;43.24
76732;BME280;65656;51.130;13.658;2023-05-10T11:43:57;98856.53;;;21.19;43.26
76732;BME280;65656;51.130;13.658;2023-05-10T11:48:00;98853.56;;;21.62;42.25
76732;BME280;65656;51.130;13.658;2023-05-10T11:52:07;98848.66;;;21.59;42.01
76732;BME280;65656;51.130;13.658;2023-05-10T11:56:10;98848.06;;;21.07;45.78
76732;BME280;65656;51.130;13.658;2023-05-10T12:00:12;98849.66;;;21.55;43.04
76732;BME280;65656;51.130;13.658;2023-05-10T12:04:14;98856.97;;;21.68;43.96
76732;BME280;65656;51.130;13.658;2023-05-10T12:08:21;98859.78;;;22.18;43.16
76732;BME280;65656;51.130;13.658;2023-05-10T12:12:23;98861.91;;;22.88;40.64
76732;BME280;65656;51.130;13.658;2023-05-10T12:16:28;98858.66;;;22.32;41.67
76732;BME280;65656;51.130;13.658;2023-05-10T12:20:30;98861.34;;;22.61;40.65
76732;BME280;65656;51.130;13.658;2023-05-10T12:24:34;98853.41;;;22.51;38.65
76732;BME280;65656;51.130;13.658;2023-05-10T12:28:37;98860.16;;;23.28;38.80
76732;BME280;65656;51.130;13.658;2023-05-10T12:32:40;98865.31;;;22.93;39.50
76732;BME280;65656;51.130;13.658;2023-05-10T12:36:41;98870.03;;;22.80;39.49
76732;BME280;65656;51.130;13.658;2023-05-10T12:40:44;98860.59;;;22.19;40.98
76732;BME280;65656;51.130;13.658;2023-05-10T12:44:46;98875.22;;;21.86;42.56
76732;BME280;65656;51.130;13.658;2023-05-10T12:48:47;98876.91;;;21.11;41.42
76732;BME280;65656;51.130;13.658;2023-05-10T12:52:49;98882.22;;;20.78;43.87
76732;BME280;65656;51.130;13.658;2023-05-10T12:56:51;98880.59;;;20.68;42.88
76732;BME280;65656;51.130;13.658;2023-05-10T13:00:53;98898.78;;;20.66;42.79
76732;BME280;65656;51.130;13.658;2023-05-10T13:04:55;98902.03;;;20.33;46.33
76732;BME280;65656;51.130;13.658;2023-05-10T13:08:56;98896.75;;;19.88;47.59
76732;BME280;65656;51.130;13.658;2023-05-10T13:12:59;98897.56;;;19.40;49.16
76732;BME280;65656;51.130;13.658;2023-05-10T13:17:01;98900.34;;;19.01;51.50
76732;BME280;65656;51.130;13.658;2023-05-10T13:21:03;98905.06;;;19.31;51.00
76732;BME280;65656;51.130;13.658;2023-05-10T13:25:05;98909.25;;;19.20;52.21
76732;BME280;65656;51.130;13.658;2023-05-10T13:29:08;98910.53;;;19.93;50.54
76732;BME280;65656;51.130;13.658;2023-05-10T13:33:09;98897.59;;;20.06;49.27
76732;BME280;65656;51.130;13.658;2023-05-10T13:37:11;98902.00;;;19.98;50.98
76732;BME280;65656;51.130;13.658;2023-05-10T13:41:12;98908.56;;;20.20;50.29
76732;BME280;65656;51.130;13.658;2023-05-10T13:45:15;98899.34;;;19.76;51.33
76732;BME280;65656;51.130;13.658;2023-05-10T13:49:17;98897.28;;;19.51;51.96
76732;BME280;65656;51.130;13.658;2023-05-10T13:53:18;98892.22;;;20.18;51.13
76732;BME280;65656;51.130;13.658;2023-05-10T13:57:20;98894.03;;;20.66;49.71
76732;BME280;65656;51.130;13.658;2023-05-10T14:01:23;98897.47;;;20.72;49.26
76732;BME280;65656;51.130;13.658;2023-05-10T14:05:24;98902.31;;;21.48;47.93
76732;BME280;65656;51.130;13.658;2023-05-10T14:09:27;98894.25;;;21.63;47.09
76732;BME280;65656;51.130;13.658;2023-05-10T14:13:28;98895.38;;;21.33;48.50
76732;BME280;65656;51.130;13.658;2023-05-10T14:17:31;98900.72;;;20.74;48.56
76732;BME280;65656;51.130;13.658;2023-05-10T14:21:33;98886.72;;;21.55;46.98
76732;BME280;65656;51.130;13.658;2023-05-10T14:25:35;98888.56;;;21.81;45.90
76732;BME280;65656;51.130;13.658;2023-05-10T14:29:36;98881.28;;;21.21;47.57
76732;BME280;65656;51.130;13.658;2023-05-10T14:33:39;98887.47;;;21.35;46.87
76732;BME280;65656;51.130;13.658;2023-05-10T14:37:41;98894.50;;;20.77;49.05
76732;BME280;65656;51.130;13.658;2023-05-10T14:41:42;98887.97;;;20.73;49.71
76732;BME280;65656;51.130;13.658;2023-05-10T14:45:44;98889.09;;;20.28;50.97
76732;BME280;65656;51.130;13.658;2023-05-10T14:49:46;98888.53;;;19.66;51.78
76732;BME280;65656;51.130;13.658;2023-05-10T14:53:48;98884.63;;;19.84;51.59
76732;BME280;65656;51.130;13.658;2023-05-10T14:57:49;98885.03;;;20.09;51.27
76732;BME280;65656;51.130;13.658;2023-05-10T15:01:51;98892.50;;;19.82;53.51
76732;BME280;65656;51.130;13.658;2023-05-10T15:05:54;98894.47;;;19.42;54.13
76732;BME280;65656;51.130;13.658;2023-05-10T15:09:56;98896.00;;;19.17;54.89
76732;BME280;65656;51.130;13.658;2023-05-10T15:13:57;98899.66;;;18.73;56.57
76732;BME280;65656;51.130;13.658;2023-05-10T15:17:59;98898.63;;;19.22;55.85
76732;BME280;65656;51.130;13.658;2023-05-10T15:22:03;98906.50;;;19.29;55.54
76732;BME280;65656;51.130;13.658;2023-05-10T15:26:05;98899.91;;;19.56;55.12
76732;BME280;65656;51.130;13.658;2023-05-10T15:30:07;98893.66;;;19.41;56.77
76732;BME280;65656;51.130;13.658;2023-05-10T15:34:09;98907.03;;;19.70;55.15
76732;BME280;65656;51.130;13.658;2023-05-10T15:38:12;98896.91;;;19.43;56.27
76732;BME280;65656;51.130;13.658;2023-05-10T15:42:13;98910.44;;;18.97;56.72
76732;BME280;65656;51.130;13.658;2023-05-10T15:46:15;98906.88;;;18.15;59.17
76732;BME280;65656;51.130;13.658;2023-05-10T15:50:16;98912.13;;;18.39;57.66
76732;BME280;65656;51.130;13.658;2023-05-10T15:54:19;98917.53;;;18.44;58.03
76732;BME280;65656;51.130;13.658;2023-05-10T15:58:21;98921.63;;;18.24;58.85
76732;BME280;65656;51.130;13.658;2023-05-10T16:02:22;98927.25;;;17.83;60.38
76732;BME280;65656;51.130;13.658;2023-05-10T16:06:24;98926.63;;;17.72;61.44
76732;BME280;65656;51.130;13.658;2023-05-10T16:10:30;98928.03;;;17.42;60.77
76732;BME280;65656;51.130;13.658;2023-05-10T16:14:32;98932.91;;;17.04;61.90
76732;BME280;65656;51.130;13.658;2023-05-10T16:18:33;98938.19;;;17.19;62.14
76732;BME280;65656;51.130;13.658;2023-05-10T16:22:35;98939.50;;;17.08;62.44
76732;BME280;65656;51.130;13.658;2023-05-10T16:26:38;98944.41;;;17.11;63.65
76732;BME280;65656;51.130;13.658;2023-05-10T16:30:40;98945.03;;;17.08;63.68
76732;BME280;65656;51.130;13.658;2023-05-10T16:34:41;98943.47;;;17.02;63.24
76732;BME280;65656;51.130;13.658;2023-05-10T16:38:43;98943.16;;;16.90;63.71
76732;BME280;65656;51.130;13.658;2023-05-10T16:42:46;98947.31;;;16.74;62.73
76732;BME280;65656;51.130;13.658;2023-05-10T16:46:47;98949.03;;;16.69;62.81
76732;BME280;65656;51.130;13.658;2023-05-10T16:50:49;98954.81;;;16.87;61.88
76732;BME280;65656;51.130;13.658;2023-05-10T16:54:51;98951.72;;;16.75;63.39
76732;BME280;65656;51.130;13.658;2023-05-10T16:58:55;98959.03;;;16.65;64.44
76732;BME280;65656;51.130;13.658;2023-05-10T17:02:57;98971.28;;;16.59;65.46
76732;BME280;65656;51.130;13.658;2023-05-10T17:06:58;98970.03;;;16.52;66.89
76732;BME280;65656;51.130;13.658;2023-05-10T17:11:00;98972.22;;;16.36;67.39
76732;BME280;65656;51.130;13.658;2023-05-10T17:15:04;98976.69;;;16.32;68.41
76732;BME280;65656;51.130;13.658;2023-05-10T17:19:06;98976.97;;;16.11;69.23
76732;BME280;65656;51.130;13.658;2023-05-10T17:23:08;98984.66;;;15.96;69.61
76732;BME280;65656;51.130;13.658;2023-05-10T17:27:10;98993.34;;;15.84;69.86
76732;BME280;65656;51.130;13.658;2023-05-10T17:31:13;98996.28;;;15.69;70.13
76732;BME280;65656;51.130;13.658;2023-05-10T17:35:14;98997.31;;;15.49;70.10
76732;BME280;65656;51.130;13.658;2023-05-10T17:39:16;98998.06;;;15.54;69.60
76732;BME280;65656;51.130;13.658;2023-05-10T17:43:19;98997.75;;;15.32;70.83
76732;BME280;65656;51.130;13.658;2023-05-10T17:47:22;99011.63;;;15.27;71.20
76732;BME280;65656;51.130;13.658;2023-05-10T17:51:23;99010.53;;;15.23;72.00
76732;BME280;65656;51.130;13.658;2023-05-10T17:55:25;99016.88;;;15.23;71.95
76732;BME280;65656;51.130;13.658;2023-05-10T17:59:26;99011.44;;;15.18;72.50
76732;BME280;65656;51.130;13.658;2023-05-10T18:03:29;99009.50;;;15.19;72.48
76732;BME280;65656;51.130;13.658;2023-05-10T18:07:31;99020.69;;;14.98;73.50
76732;BME280;65656;51.130;13.658;2023-05-10T18:11:33;99011.91;;;14.96;73.62
76732;BME280;65656;51.130;13.658;2023-05-10T18:15:35;99019.38;;;14.91;73.61
76732;BME280;65656;51.130;13.658;2023-05-10T18:19:38;99025.81;;;14.81;74.66
76732;BME280;65656;51.130;13.658;2023-05-10T18:23:39;99032.56;;;14.65;74.66
76732;BME280;65656;51.130;13.658;2023-05-10T18:27:41;99033.41;;;14.55;75.40
76732;BME280;65656;51.130;13.658;2023-05-10T18:31:42;99036.75;;;14.52;75.81
76732;BME280;65656;51.130;13.658;2023-05-10T18:35:45;99038.72;;;14.46;76.40
76732;BME280;65656;51.130;13.658;2023-05-10T18:39:47;99037.91;;;14.41;77.26
76732;BME280;65656;51.130;13.658;2023-05-10T18:43:48;99033.25;;;14.31;77.68
76732;BME280;65656;51.130;13.658;2023-05-10T18:47:50;99048.72;;;14.27;77.94
76732;BME280;65656;51.130;13.658;2023-05-10T18:51:53;99051.50;;;14.22;78.13
76732;BME280;65656;51.130;13.658;2023-05-10T18:55:55;99053.13;;;14.23;78.55
76732;BME280;65656;51.130;13.658;2023-05-10T18:59:56;99056.50;;;14.15;80.66
76732;BME280;65656;51.130;13.658;2023-05-10T19:03:58;99064.50;;;14.06;80.05
76732;BME280;65656;51.130;13.658;2023-05-10T19:08:01;99062.63;;;14.02;81.89
76732;BME280;65656;51.130;13.658;2023-05-10T19:12:02;99067.06;;;13.87;84.60
76732;BME280;65656;51.130;13.658;2023-05-10T19:16:04;99073.72;;;13.61;87.06
76732;BME280;65656;51.130;13.658;2023-05-10T19:20:07;99078.19;;;13.47;87.59
76732;BME280;65656;51.130;13.658;2023-05-10T19:24:10;99081.78;;;13.32;88.36
76732;BME280;65656;51.130;13.658;2023-05-10T19:28:12;99087.81;;;13.34;89.72
76732;BME280;65656;51.130;13.658;2023-05-10T19:32:13;99075.97;;;13.44;90.59
76732;BME280;65656;51.130;13.658;2023-05-10T19:36:15;99086.97;;;13.44;90.82
76732;BME280;65656;51.130;13.658;2023-05-10T19:40:18;99092.50;;;13.33;90.85
76732;BME280;65656;51.130;13.658;2023-05-10T19:44:20;99087.00;;;13.28;91.59
76732;BME280;65656;51.130;13.658;2023-05-10T19:48:21;99101.28;;;13.20;92.82
76732;BME280;65656;51.130;13.658;2023-05-10T19:52:23;99090.28;;;13.10;93.03
76732;BME280;65656;51.130;13.658;2023-05-10T19:56:25;99089.72;;;13.13;93.26
76732;BME280;65656;51.130;13.658;2023-05-10T20:00:27;99088.06;;;12.97;95.26
76732;BME280;65656;51.130;13.658;2023-05-10T20:04:29;99086.41;;;13.01;93.85
76732;BME280;65656;51.130;13.658;2023-05-10T20:08:30;99093.56;;;13.02;94.61
76732;BME280;65656;51.130;13.658;2023-05-10T20:12:33;99089.44;;;12.84;95.29
76732;BME280;65656;51.130;13.658;2023-05-10T20:16:34;99081.97;;;12.64;96.20
76732;BME280;65656;51.130;13.658;2023-05-10T20:20:36;99090.69;;;12.36;96.70
76732;BME280;65656;51.130;13.658;2023-05-10T20:24:37;99085.06;;;12.05;98.58
76732;BME280;65656;51.130;13.658;2023-05-10T20:28:40;99082.97;;;11.75;100.00
76732;BME280;65656;51.130;13.658;2023-05-10T20:32:42;99101.25;;;11.59;100.00
76732;BME280;65656;51.130;13.658;2023-05-10T20:36:43;99089.31;;;11.38;100.00
76732;BME280;65656;51.130;13.658;2023-05-10T20:40:45;99091.16;;;11.28;100.00
76732;BME280;65656;51.130;13.658;2023-05-10T20:44:48;99091.41;;;11.21;100.00
76732;BME280;65656;51.130;13.658;2023-05-10T20:48:50;99093.88;;;11.23;100.00
76732;BME280;65656;51.130;13.658;2023-05-10T20:52:51;99097.59;;;11.11;100.00
76732;BME280;65656;51.130;13.658;2023-05-10T20:56:53;99096.69;;;11.01;100.00
76732;BME280;65656;51.130;13.658;2023-05-10T21:00:56;99095.34;;;11.03;100.00
76732;BME280;65656;51.130;13.658;2023-05-10T21:04:58;99098.66;;;11.05;100.00
76732;BME280;65656;51.130;13.658;2023-05-10T21:09:00;99098.06;;;10.98;100.00